Terminal Aerodrome Forecast
Issued by NWS

Home | Current Version | Previous Version | Text Only | Print | Product List | Glossary On
Versions: 1 2 3 4 5 6 7 8 9 10 11 12 13 14
009
FTUS43 KIND 292320
TAFLAF
TAF
KLAF 292320Z 3000/3024 03006KT P6SM VCSH BKN100
     FM300400 02007KT P6SM VCSH BKN025
     FM300600 02009KT 5SM -RA BR OVC008
     FM301400 05009KT 5SM -RA BR OVC008
     FM302200 07007KT P6SM -SHRA BKN035
      AMD LTD TO CLD VIS AND WIND 3001/3013=

USA.gov is the U.S. government's official web portal to all federal, state and local government web resources and services.